Estación Meteorológica Peña el Pijo (Robertgarden) [ 07/19/18 09:37:38 CEST ]

Fecha Hora Presion(HPa) Temp (°C) Humedad % Rocio (°C) Viento ( m/s) Direccion Lluvia 1Hora(mm) Lluvia 24H(mm) LLuvia Total(mm)
2017-Dec-23 01:01:33 1020.300 0.8 75 -3.2         21.23
2017-Dec-23 02:02:10 1020.200 0.3 77 -3.3         21.23
2017-Dec-23 03:04:57 1019.800 0.1 79 -3.1         21.23
2017-Dec-23 04:03:07 1019.800 -0.5 80 -3.5         21.23
2017-Dec-23 05:01:41 1019.300 -0.9 81 -3.7         21.23
2017-Dec-23 06:01:40 1019.200 -1.9 82 -4.6         21.23
2017-Dec-23 07:01:43 1019.600 -2.2 82 -4.9         21.23
2017-Dec-23 08:01:40 1019.800 -2.1 84 -4.5         21.23
2017-Dec-23 09:01:38 1020.200 -2.4 84 -4.8         21.23
2017-Dec-23 10:01:43 1020.300 2.8 86 0.4         21.23
2017-Dec-23 11:01:36 1020.800 8.2 77 4.4         21.23
2017-Dec-23 12:01:39 1020.700 11.8 61 4.5         21.23
2017-Dec-23 13:01:43 1020.300 9.6 68 4.0         21.23
2017-Dec-23 14:01:37 1020.500 9.4 70 4.2         21.23
2017-Dec-23 15:01:51 1020.400 8.8 71 3.8         21.23
2017-Dec-23 16:01:43 1020.500 10.1 68 4.5         21.23
2017-Dec-23 17:01:44 1020.600 8.6 68 3.0         21.23
2017-Dec-23 18:01:29 1020.800 7.6 70 2.5         21.23
2017-Dec-23 19:01:26 1021.100 6.3 72 1.7         21.23
2017-Dec-23 20:01:39 1021.400 5.3 75 1.2         21.23
2017-Dec-23 21:01:29 1021.700 5.6 77 1.9         21.23
2017-Dec-23 22:01:41 1021.800 3.1 79 -0.2         21.23
2017-Dec-23 23:01:38 1022.000 2.3 81 -0.6         21.23

Temperatura Máxima:11°    Temperatura Mínima:-2°
Presión Máxima:1022.000 Hpa    Presión Mínima:1019.200 Hpa


Volver